sensor_id;sensor_type;location;lat;lon;timestamp;temperature;humidity
67862;DHT22;54665;51.462;6.698;2023-01-08T00:01:40;9.83;86.63
67862;DHT22;54665;51.462;6.698;2023-01-08T00:04:08;9.83;86.63
67862;DHT22;54665;51.462;6.698;2023-01-08T00:06:34;9.81;86.65
67862;DHT22;54665;51.462;6.698;2023-01-08T00:08:59;9.78;86.66
67862;DHT22;54665;51.462;6.698;2023-01-08T00:11:26;9.87;85.97
67862;DHT22;54665;51.462;6.698;2023-01-08T00:13:51;9.86;86.17
67862;DHT22;54665;51.462;6.698;2023-01-08T00:16:18;9.87;86.07
67862;DHT22;54665;51.462;6.698;2023-01-08T00:18:44;9.95;85.54
67862;DHT22;54665;51.462;6.698;2023-01-08T00:21:10;9.93;85.84
67862;DHT22;54665;51.462;6.698;2023-01-08T00:23:36;9.89;85.96
67862;DHT22;54665;51.462;6.698;2023-01-08T00:26:07;9.90;85.89
67862;DHT22;54665;51.462;6.698;2023-01-08T00:28:33;9.97;85.55
67862;DHT22;54665;51.462;6.698;2023-01-08T00:30:58;10.00;85.13
67862;DHT22;54665;51.462;6.698;2023-01-08T00:33:25;10.06;85.03
67862;DHT22;54665;51.462;6.698;2023-01-08T00:35:51;10.12;84.84
67862;DHT22;54665;51.462;6.698;2023-01-08T00:38:16;10.13;84.73
67862;DHT22;54665;51.462;6.698;2023-01-08T00:40:42;10.20;84.35
67862;DHT22;54665;51.462;6.698;2023-01-08T00:43:07;10.19;84.53
67862;DHT22;54665;51.462;6.698;2023-01-08T00:45:33;10.21;83.93
67862;DHT22;54665;51.462;6.698;2023-01-08T00:47:59;10.32;83.95
67862;DHT22;54665;51.462;6.698;2023-01-08T00:50:24;10.27;84.08
67862;DHT22;54665;51.462;6.698;2023-01-08T00:52:50;10.26;84.08
67862;DHT22;54665;51.462;6.698;2023-01-08T00:55:16;10.23;84.06
67862;DHT22;54665;51.462;6.698;2023-01-08T00:57:41;10.26;83.94
67862;DHT22;54665;51.462;6.698;2023-01-08T01:00:10;10.32;83.45
67862;DHT22;54665;51.462;6.698;2023-01-08T01:02:36;10.29;83.83
67862;DHT22;54665;51.462;6.698;2023-01-08T01:05:02;10.26;83.80
67862;DHT22;54665;51.462;6.698;2023-01-08T01:07:28;10.24;83.92
67862;DHT22;54665;51.462;6.698;2023-01-08T01:09:53;10.21;83.80
67862;DHT22;54665;51.462;6.698;2023-01-08T01:12:18;10.19;83.79
67862;DHT22;54665;51.462;6.698;2023-01-08T01:14:44;10.24;83.51
67862;DHT22;54665;51.462;6.698;2023-01-08T01:17:12;10.23;83.56
67862;DHT22;54665;51.462;6.698;2023-01-08T01:19:38;10.20;83.86
67862;DHT22;54665;51.462;6.698;2023-01-08T01:22:04;10.14;84.13
67862;DHT22;54665;51.462;6.698;2023-01-08T01:24:29;10.12;84.17
67862;DHT22;54665;51.462;6.698;2023-01-08T01:26:54;10.12;84.05
67862;DHT22;54665;51.462;6.698;2023-01-08T01:29:23;10.09;84.27
67862;DHT22;54665;51.462;6.698;2023-01-08T01:31:49;10.02;84.45
67862;DHT22;54665;51.462;6.698;2023-01-08T01:34:14;9.99;84.57
67862;DHT22;54665;51.462;6.698;2023-01-08T01:36:39;10.02;84.85
67862;DHT22;54665;51.462;6.698;2023-01-08T01:39:05;10.03;84.38
67862;DHT22;54665;51.462;6.698;2023-01-08T01:41:36;10.07;84.21
67862;DHT22;54665;51.462;6.698;2023-01-08T01:44:38;10.02;84.41
67862;DHT22;54665;51.462;6.698;2023-01-08T01:47:20;10.03;84.26
67862;DHT22;54665;51.462;6.698;2023-01-08T01:49:54;9.93;84.74
67862;DHT22;54665;51.462;6.698;2023-01-08T01:52:22;9.85;84.62
67862;DHT22;54665;51.462;6.698;2023-01-08T01:54:49;9.79;84.89
67862;DHT22;54665;51.462;6.698;2023-01-08T01:57:15;9.69;85.47
67862;DHT22;54665;51.462;6.698;2023-01-08T01:59:41;9.65;85.77
67862;DHT22;54665;51.462;6.698;2023-01-08T02:02:07;9.59;85.89
67862;DHT22;54665;51.462;6.698;2023-01-08T02:04:32;9.66;85.68
67862;DHT22;54665;51.462;6.698;2023-01-08T02:07:10;9.71;85.62
67862;DHT22;54665;51.462;6.698;2023-01-08T02:12:17;9.86;84.88
67862;DHT22;54665;51.462;6.698;2023-01-08T02:20:36;9.97;84.70
67862;DHT22;54665;51.462;6.698;2023-01-08T02:28:10;10.03;84.40
67862;DHT22;54665;51.462;6.698;2023-01-08T02:30:35;10.06;84.32
67862;DHT22;54665;51.462;6.698;2023-01-08T02:33:01;10.09;84.24
67862;DHT22;54665;51.462;6.698;2023-01-08T02:35:37;10.09;84.29
67862;DHT22;54665;51.462;6.698;2023-01-08T02:38:04;10.14;83.65
67862;DHT22;54665;51.462;6.698;2023-01-08T02:40:33;10.23;83.44
67862;DHT22;54665;51.462;6.698;2023-01-08T02:43:17;10.24;83.47
67862;DHT22;54665;51.462;6.698;2023-01-08T02:45:46;10.32;83.04
67862;DHT22;54665;51.462;6.698;2023-01-08T02:50:58;10.24;83.21
67862;DHT22;54665;51.462;6.698;2023-01-08T02:53:40;10.27;83.17
67862;DHT22;54665;51.462;6.698;2023-01-08T02:56:10;10.29;83.11
67862;DHT22;54665;51.462;6.698;2023-01-08T02:58:40;10.24;83.01
67862;DHT22;54665;51.462;6.698;2023-01-08T03:01:09;10.23;83.11
67862;DHT22;54665;51.462;6.698;2023-01-08T03:03:38;10.27;83.12
67862;DHT22;54665;51.462;6.698;2023-01-08T03:06:12;10.36;82.63
67862;DHT22;54665;51.462;6.698;2023-01-08T03:08:41;10.36;82.74
67862;DHT22;54665;51.462;6.698;2023-01-08T03:11:12;10.37;82.69
67862;DHT22;54665;51.462;6.698;2023-01-08T03:13:48;10.47;82.08
67862;DHT22;54665;51.462;6.698;2023-01-08T03:16:17;10.46;82.31
67862;DHT22;54665;51.462;6.698;2023-01-08T03:18:54;10.46;82.24
67862;DHT22;54665;51.462;6.698;2023-01-08T03:21:24;10.47;82.31
67862;DHT22;54665;51.462;6.698;2023-01-08T03:23:50;10.44;82.60
67862;DHT22;54665;51.462;6.698;2023-01-08T03:26:21;10.44;82.46
67862;DHT22;54665;51.462;6.698;2023-01-08T03:28:51;10.46;82.48
67862;DHT22;54665;51.462;6.698;2023-01-08T03:31:18;10.47;82.48
67862;DHT22;54665;51.462;6.698;2023-01-08T03:33:45;10.56;81.74
67862;DHT22;54665;51.462;6.698;2023-01-08T03:36:16;10.57;82.02
67862;DHT22;54665;51.462;6.698;2023-01-08T03:38:47;10.53;82.11
67862;DHT22;54665;51.462;6.698;2023-01-08T03:41:18;10.58;81.72
67862;DHT22;54665;51.462;6.698;2023-01-08T03:43:45;10.54;81.90
67862;DHT22;54665;51.462;6.698;2023-01-08T03:46:15;10.50;81.95
67862;DHT22;54665;51.462;6.698;2023-01-08T03:48:41;10.48;81.67
67862;DHT22;54665;51.462;6.698;2023-01-08T03:51:10;10.40;82.32
67862;DHT22;54665;51.462;6.698;2023-01-08T03:53:35;10.37;82.42
67862;DHT22;54665;51.462;6.698;2023-01-08T03:56:01;10.29;82.90
67862;DHT22;54665;51.462;6.698;2023-01-08T03:58:26;10.26;82.96
67862;DHT22;54665;51.462;6.698;2023-01-08T04:00:52;10.21;83.18
67862;DHT22;54665;51.462;6.698;2023-01-08T04:03:17;10.33;82.75
67862;DHT22;54665;51.462;6.698;2023-01-08T04:05:43;10.30;82.91
67862;DHT22;54665;51.462;6.698;2023-01-08T04:08:11;10.27;83.11
67862;DHT22;54665;51.462;6.698;2023-01-08T04:10:37;10.32;82.98
67862;DHT22;54665;51.462;6.698;2023-01-08T04:13:02;10.29;83.19
67862;DHT22;54665;51.462;6.698;2023-01-08T04:15:27;10.29;83.27
67862;DHT22;54665;51.462;6.698;2023-01-08T04:17:53;10.26;83.48
67862;DHT22;54665;51.462;6.698;2023-01-08T04:20:18;10.30;83.34
67862;DHT22;54665;51.462;6.698;2023-01-08T04:22:44;10.30;83.53
67862;DHT22;54665;51.462;6.698;2023-01-08T04:25:09;10.27;83.92
67862;DHT22;54665;51.462;6.698;2023-01-08T04:27:35;10.29;83.73
67862;DHT22;54665;51.462;6.698;2023-01-08T04:30:01;10.19;84.17
67862;DHT22;54665;51.462;6.698;2023-01-08T04:32:26;10.16;84.14
67862;DHT22;54665;51.462;6.698;2023-01-08T04:34:51;10.16;84.18
67862;DHT22;54665;51.462;6.698;2023-01-08T04:37:17;10.21;83.97
67862;DHT22;54665;51.462;6.698;2023-01-08T04:39:42;10.21;83.85
67862;DHT22;54665;51.462;6.698;2023-01-08T04:42:08;10.16;84.22
67862;DHT22;54665;51.462;6.698;2023-01-08T04:44:33;10.07;84.38
67862;DHT22;54665;51.462;6.698;2023-01-08T04:46:58;10.07;84.48
67862;DHT22;54665;51.462;6.698;2023-01-08T04:49:24;10.20;83.90
67862;DHT22;54665;51.462;6.698;2023-01-08T04:51:49;10.16;83.86
67862;DHT22;54665;51.462;6.698;2023-01-08T04:54:14;10.14;84.04
67862;DHT22;54665;51.462;6.698;2023-01-08T04:56:40;10.16;84.01
67862;DHT22;54665;51.462;6.698;2023-01-08T04:59:05;10.09;83.98
67862;DHT22;54665;51.462;6.698;2023-01-08T05:01:31;10.09;83.90
67862;DHT22;54665;51.462;6.698;2023-01-08T05:03:59;10.07;83.91
67862;DHT22;54665;51.462;6.698;2023-01-08T05:06:25;10.07;83.98
67862;DHT22;54665;51.462;6.698;2023-01-08T05:08:52;10.05;84.00
67862;DHT22;54665;51.462;6.698;2023-01-08T05:11:17;9.97;84.30
67862;DHT22;54665;51.462;6.698;2023-01-08T05:13:43;9.90;84.68
67862;DHT22;54665;51.462;6.698;2023-01-08T05:16:11;9.86;84.84
67862;DHT22;54665;51.462;6.698;2023-01-08T05:18:36;9.83;84.87
67862;DHT22;54665;51.462;6.698;2023-01-08T05:21:03;9.81;85.08
67862;DHT22;54665;51.462;6.698;2023-01-08T05:23:30;9.76;85.19
67862;DHT22;54665;51.462;6.698;2023-01-08T05:25:57;9.79;84.99
67862;DHT22;54665;51.462;6.698;2023-01-08T05:28:23;9.79;84.99
67862;DHT22;54665;51.462;6.698;2023-01-08T05:30:48;9.83;84.41
67862;DHT22;54665;51.462;6.698;2023-01-08T05:33:14;9.83;84.43
67862;DHT22;54665;51.462;6.698;2023-01-08T05:35:39;9.82;84.30
67862;DHT22;54665;51.462;6.698;2023-01-08T05:38:05;9.79;84.15
67862;DHT22;54665;51.462;6.698;2023-01-08T05:40:30;9.75;84.16
67862;DHT22;54665;51.462;6.698;2023-01-08T05:42:58;9.78;83.74
67862;DHT22;54665;51.462;6.698;2023-01-08T05:45:24;9.82;83.20
67862;DHT22;54665;51.462;6.698;2023-01-08T05:47:49;9.76;83.40
67862;DHT22;54665;51.462;6.698;2023-01-08T05:50:15;9.87;82.62
67862;DHT22;54665;51.462;6.698;2023-01-08T05:52:40;9.89;82.59
67862;DHT22;54665;51.462;6.698;2023-01-08T05:55:05;9.92;82.51
67862;DHT22;54665;51.462;6.698;2023-01-08T05:57:31;9.93;82.62
67862;DHT22;54665;51.462;6.698;2023-01-08T05:59:56;9.89;82.90
67862;DHT22;54665;51.462;6.698;2023-01-08T06:02:21;9.87;82.85
67862;DHT22;54665;51.462;6.698;2023-01-08T06:04:47;9.92;83.50
67862;DHT22;54665;51.462;6.698;2023-01-08T06:07:12;9.85;84.83
67862;DHT22;54665;51.462;6.698;2023-01-08T06:09:38;9.69;86.38
67862;DHT22;54665;51.462;6.698;2023-01-08T06:12:03;9.51;87.57
67862;DHT22;54665;51.462;6.698;2023-01-08T06:14:28;9.41;87.57
67862;DHT22;54665;51.462;6.698;2023-01-08T06:16:54;9.32;88.03
67862;DHT22;54665;51.462;6.698;2023-01-08T06:19:19;9.21;88.87
67862;DHT22;54665;51.462;6.698;2023-01-08T06:21:45;9.15;89.09
67862;DHT22;54665;51.462;6.698;2023-01-08T06:24:10;9.01;90.06
67862;DHT22;54665;51.462;6.698;2023-01-08T06:26:36;8.96;90.40
67862;DHT22;54665;51.462;6.698;2023-01-08T06:29:04;8.88;90.43
67862;DHT22;54665;51.462;6.698;2023-01-08T06:31:29;8.90;88.93
67862;DHT22;54665;51.462;6.698;2023-01-08T06:33:55;8.91;87.98
67862;DHT22;54665;51.462;6.698;2023-01-08T06:36:20;8.87;88.69
67862;DHT22;54665;51.462;6.698;2023-01-08T06:38:46;8.80;86.93
67862;DHT22;54665;51.462;6.698;2023-01-08T06:41:11;8.73;87.20
67862;DHT22;54665;51.462;6.698;2023-01-08T06:43:37;8.69;87.05
67862;DHT22;54665;51.462;6.698;2023-01-08T06:46:05;8.66;86.32
67862;DHT22;54665;51.462;6.698;2023-01-08T06:48:30;8.66;85.44
67862;DHT22;54665;51.462;6.698;2023-01-08T06:50:58;8.55;86.59
67862;DHT22;54665;51.462;6.698;2023-01-08T06:53:24;8.41;88.14
67862;DHT22;54665;51.462;6.698;2023-01-08T06:55:49;8.35;87.57
67862;DHT22;54665;51.462;6.698;2023-01-08T06:58:20;8.24;88.52
67862;DHT22;54665;51.462;6.698;2023-01-08T07:00:45;8.20;86.31
67862;DHT22;54665;51.462;6.698;2023-01-08T07:03:11;8.15;85.37
67862;DHT22;54665;51.462;6.698;2023-01-08T07:05:36;8.02;86.09
67862;DHT22;54665;51.462;6.698;2023-01-08T07:08:01;7.92;87.11
67862;DHT22;54665;51.462;6.698;2023-01-08T07:10:27;7.90;87.14
67862;DHT22;54665;51.462;6.698;2023-01-08T07:12:55;7.80;88.13
67862;DHT22;54665;51.462;6.698;2023-01-08T07:15:21;7.80;88.20
67862;DHT22;54665;51.462;6.698;2023-01-08T07:17:46;7.73;88.90
67862;DHT22;54665;51.462;6.698;2023-01-08T07:20:12;7.71;88.93
67862;DHT22;54665;51.462;6.698;2023-01-08T07:22:37;7.66;89.31
67862;DHT22;54665;51.462;6.698;2023-01-08T07:25:03;7.60;89.44
67862;DHT22;54665;51.462;6.698;2023-01-08T07:27:30;7.59;89.78
67862;DHT22;54665;51.462;6.698;2023-01-08T07:29:55;7.63;89.02
67862;DHT22;54665;51.462;6.698;2023-01-08T07:32:21;7.66;88.74
67862;DHT22;54665;51.462;6.698;2023-01-08T07:34:46;7.67;88.87
67862;DHT22;54665;51.462;6.698;2023-01-08T07:37:12;7.74;88.39
67862;DHT22;54665;51.462;6.698;2023-01-08T07:39:37;7.73;88.19
67862;DHT22;54665;51.462;6.698;2023-01-08T07:42:03;7.70;88.39
67862;DHT22;54665;51.462;6.698;2023-01-08T07:44:28;7.75;88.28
67862;DHT22;54665;51.462;6.698;2023-01-08T07:46:53;7.78;88.17
67862;DHT22;54665;51.462;6.698;2023-01-08T07:49:19;7.80;88.28
67862;DHT22;54665;51.462;6.698;2023-01-08T07:51:44;7.77;88.75
67862;DHT22;54665;51.462;6.698;2023-01-08T07:54:10;7.75;88.61
67862;DHT22;54665;51.462;6.698;2023-01-08T07:56:35;7.78;88.80
67862;DHT22;54665;51.462;6.698;2023-01-08T07:59:01;7.77;88.56
67862;DHT22;54665;51.462;6.698;2023-01-08T08:01:26;7.74;88.55
67862;DHT22;54665;51.462;6.698;2023-01-08T08:03:54;7.60;88.98
67862;DHT22;54665;51.462;6.698;2023-01-08T08:06:23;7.49;89.19
67862;DHT22;54665;51.462;6.698;2023-01-08T08:08:48;7.36;89.54
67862;DHT22;54665;51.462;6.698;2023-01-08T08:11:13;7.29;89.56
67862;DHT22;54665;51.462;6.698;2023-01-08T08:13:39;7.15;89.99
67862;DHT22;54665;51.462;6.698;2023-01-08T08:16:09;7.09;89.87
67862;DHT22;54665;51.462;6.698;2023-01-08T08:18:35;7.05;89.83
67862;DHT22;54665;51.462;6.698;2023-01-08T08:21:00;7.01;89.96
67862;DHT22;54665;51.462;6.698;2023-01-08T08:23:26;7.02;90.06
67862;DHT22;54665;51.462;6.698;2023-01-08T08:25:51;6.92;90.30
67862;DHT22;54665;51.462;6.698;2023-01-08T08:28:17;6.82;90.64
67862;DHT22;54665;51.462;6.698;2023-01-08T08:30:43;6.89;90.48
67862;DHT22;54665;51.462;6.698;2023-01-08T08:33:09;6.91;90.18
67862;DHT22;54665;51.462;6.698;2023-01-08T08:35:35;6.82;90.53
67862;DHT22;54665;51.462;6.698;2023-01-08T08:38:01;6.85;90.76
67862;DHT22;54665;51.462;6.698;2023-01-08T08:40:27;6.88;90.64
67862;DHT22;54665;51.462;6.698;2023-01-08T08:42:57;6.81;90.95
67862;DHT22;54665;51.462;6.698;2023-01-08T08:45:22;6.92;90.59
67862;DHT22;54665;51.462;6.698;2023-01-08T08:47:48;6.87;90.75
67862;DHT22;54665;51.462;6.698;2023-01-08T08:50:13;6.96;90.23
67862;DHT22;54665;51.462;6.698;2023-01-08T08:52:38;7.08;90.10
67862;DHT22;54665;51.462;6.698;2023-01-08T08:55:04;7.08;89.92
67862;DHT22;54665;51.462;6.698;2023-01-08T08:57:30;7.22;89.46
67862;DHT22;54665;51.462;6.698;2023-01-08T08:59:55;7.33;89.13
67862;DHT22;54665;51.462;6.698;2023-01-08T09:02:20;7.47;88.31
67862;DHT22;54665;51.462;6.698;2023-01-08T09:04:46;7.59;87.88
67862;DHT22;54665;51.462;6.698;2023-01-08T09:07:11;7.69;87.38
67862;DHT22;54665;51.462;6.698;2023-01-08T09:09:36;7.71;86.76
67862;DHT22;54665;51.462;6.698;2023-01-08T09:12:02;7.74;86.64
67862;DHT22;54665;51.462;6.698;2023-01-08T09:14:28;7.78;86.53
67862;DHT22;54665;51.462;6.698;2023-01-08T09:16:53;7.81;86.33
67862;DHT22;54665;51.462;6.698;2023-01-08T09:19:18;7.87;86.18
67862;DHT22;54665;51.462;6.698;2023-01-08T09:21:44;7.91;86.21
67862;DHT22;54665;51.462;6.698;2023-01-08T09:24:09;7.99;85.86
67862;DHT22;54665;51.462;6.698;2023-01-08T09:26:35;8.08;86.25
67862;DHT22;54665;51.462;6.698;2023-01-08T09:29:01;8.18;86.18
67862;DHT22;54665;51.462;6.698;2023-01-08T09:31:26;8.31;85.43
67862;DHT22;54665;51.462;6.698;2023-01-08T09:33:52;8.43;84.37
67862;DHT22;54665;51.462;6.698;2023-01-08T09:36:17;8.59;84.33
67862;DHT22;54665;51.462;6.698;2023-01-08T09:38:44;8.74;83.41
67862;DHT22;54665;51.462;6.698;2023-01-08T09:41:20;8.96;83.04
67862;DHT22;54665;51.462;6.698;2023-01-08T09:43:49;9.11;83.04
67862;DHT22;54665;51.462;6.698;2023-01-08T09:46:17;9.14;82.66
67862;DHT22;54665;51.462;6.698;2023-01-08T09:48:43;9.15;82.83
67862;DHT22;54665;51.462;6.698;2023-01-08T09:51:13;9.17;82.68
67862;DHT22;54665;51.462;6.698;2023-01-08T09:53:39;9.32;83.39
67862;DHT22;54665;51.462;6.698;2023-01-08T09:56:16;9.39;82.19
67862;DHT22;54665;51.462;6.698;2023-01-08T09:58:44;9.48;82.19
67862;DHT22;54665;51.462;6.698;2023-01-08T10:01:13;9.46;81.23
67862;DHT22;54665;51.462;6.698;2023-01-08T10:03:42;9.46;81.43
67862;DHT22;54665;51.462;6.698;2023-01-08T10:06:10;9.54;81.67
67862;DHT22;54665;51.462;6.698;2023-01-08T10:08:36;9.74;82.38
67862;DHT22;54665;51.462;6.698;2023-01-08T10:11:02;9.75;81.09
67862;DHT22;54665;51.462;6.698;2023-01-08T10:13:28;9.74;80.77
67862;DHT22;54665;51.462;6.698;2023-01-08T10:15:53;9.81;81.21
67862;DHT22;54665;51.462;6.698;2023-01-08T10:18:22;9.90;80.90
67862;DHT22;54665;51.462;6.698;2023-01-08T10:20:48;10.03;80.36
67862;DHT22;54665;51.462;6.698;2023-01-08T10:23:16;10.24;80.63
67862;DHT22;54665;51.462;6.698;2023-01-08T10:25:54;10.33;79.31
67862;DHT22;54665;51.462;6.698;2023-01-08T10:28:23;10.36;79.08
67862;DHT22;54665;51.462;6.698;2023-01-08T10:30:50;10.63;78.68
67862;DHT22;54665;51.462;6.698;2023-01-08T10:33:23;10.95;78.10
67862;DHT22;54665;51.462;6.698;2023-01-08T10:35:55;11.29;76.74
67862;DHT22;54665;51.462;6.698;2023-01-08T10:38:32;11.36;76.41
67862;DHT22;54665;51.462;6.698;2023-01-08T10:41:00;11.38;75.88
67862;DHT22;54665;51.462;6.698;2023-01-08T10:43:30;11.40;76.16
67862;DHT22;54665;51.462;6.698;2023-01-08T10:46:06;11.20;75.65
67862;DHT22;54665;51.462;6.698;2023-01-08T10:48:53;11.02;76.01
67862;DHT22;54665;51.462;6.698;2023-01-08T10:51:30;11.14;76.25
67862;DHT22;54665;51.462;6.698;2023-01-08T10:54:12;11.19;75.72
67862;DHT22;54665;51.462;6.698;2023-01-08T10:56:41;11.09;75.25
67862;DHT22;54665;51.462;6.698;2023-01-08T10:59:19;10.92;75.81
67862;DHT22;54665;51.462;6.698;2023-01-08T11:01:46;10.85;76.22
67862;DHT22;54665;51.462;6.698;2023-01-08T11:06:47;11.08;75.02
67862;DHT22;54665;51.462;6.698;2023-01-08T11:09:22;11.16;73.89
67862;DHT22;54665;51.462;6.698;2023-01-08T11:11:48;11.29;73.57
67862;DHT22;54665;51.462;6.698;2023-01-08T11:14:27;11.26;73.47
67862;DHT22;54665;51.462;6.698;2023-01-08T11:16:54;11.12;73.90
67862;DHT22;54665;51.462;6.698;2023-01-08T11:19:28;11.09;74.74
67862;DHT22;54665;51.462;6.698;2023-01-08T11:24:25;11.15;78.05
67862;DHT22;54665;51.462;6.698;2023-01-08T11:26:55;10.81;77.60
67862;DHT22;54665;51.462;6.698;2023-01-08T11:35:27;10.20;80.68
67862;DHT22;54665;51.462;6.698;2023-01-08T11:37:55;10.17;83.52
67862;DHT22;54665;51.462;6.698;2023-01-08T11:51:34;9.89;84.91
67862;DHT22;54665;51.462;6.698;2023-01-08T11:54:35;9.95;85.85
67862;DHT22;54665;51.462;6.698;2023-01-08T12:00:22;9.75;86.15
67862;DHT22;54665;51.462;6.698;2023-01-08T12:03:03;9.66;86.55
67862;DHT22;54665;51.462;6.698;2023-01-08T12:05:44;9.61;86.56
67862;DHT22;54665;51.462;6.698;2023-01-08T12:11:02;9.55;84.73
67862;DHT22;54665;51.462;6.698;2023-01-08T12:19:12;9.20;83.96
67862;DHT22;54665;51.462;6.698;2023-01-08T12:24:36;9.51;85.01
67862;DHT22;54665;51.462;6.698;2023-01-08T12:30:06;9.81;83.38
67862;DHT22;54665;51.462;6.698;2023-01-08T12:32:42;10.12;83.20
67862;DHT22;54665;51.462;6.698;2023-01-08T12:35:26;10.47;82.84
67862;DHT22;54665;51.462;6.698;2023-01-08T12:38:29;10.54;81.20
67862;DHT22;54665;51.462;6.698;2023-01-08T12:41:04;10.41;80.58
67862;DHT22;54665;51.462;6.698;2023-01-08T12:43:37;10.36;80.37
67862;DHT22;54665;51.462;6.698;2023-01-08T12:46:06;10.32;79.27
67862;DHT22;54665;51.462;6.698;2023-01-08T12:48:38;10.34;80.34
67862;DHT22;54665;51.462;6.698;2023-01-08T12:51:08;10.32;80.33
67862;DHT22;54665;51.462;6.698;2023-01-08T13:00:17;10.27;80.01
67862;DHT22;54665;51.462;6.698;2023-01-08T13:03:01;10.24;78.88
67862;DHT22;54665;51.462;6.698;2023-01-08T13:05:34;10.27;79.20
67862;DHT22;54665;51.462;6.698;2023-01-08T13:08:06;10.38;78.45
67862;DHT22;54665;51.462;6.698;2023-01-08T13:10:36;10.36;78.80
67862;DHT22;54665;51.462;6.698;2023-01-08T13:13:04;10.20;78.18
67862;DHT22;54665;51.462;6.698;2023-01-08T13:15:30;10.29;78.60
67862;DHT22;54665;51.462;6.698;2023-01-08T13:18:02;10.44;78.58
67862;DHT22;54665;51.462;6.698;2023-01-08T13:20:30;10.53;78.72
67862;DHT22;54665;51.462;6.698;2023-01-08T13:23:03;10.64;78.41
67862;DHT22;54665;51.462;6.698;2023-01-08T13:28:16;10.64;77.72
67862;DHT22;54665;51.462;6.698;2023-01-08T13:30:42;10.72;76.82
67862;DHT22;54665;51.462;6.698;2023-01-08T13:36:22;10.87;74.62
67862;DHT22;54665;51.462;6.698;2023-01-08T13:41:55;10.67;75.07
67862;DHT22;54665;51.462;6.698;2023-01-08T13:47:01;10.75;75.57
67862;DHT22;54665;51.462;6.698;2023-01-08T13:49:46;10.69;75.75
67862;DHT22;54665;51.462;6.698;2023-01-08T13:54:54;10.50;74.91
67862;DHT22;54665;51.462;6.698;2023-01-08T13:57:21;10.68;74.44
67862;DHT22;54665;51.462;6.698;2023-01-08T13:59:51;10.95;73.08
67862;DHT22;54665;51.462;6.698;2023-01-08T14:02:32;10.99;73.18
67862;DHT22;54665;51.462;6.698;2023-01-08T14:05:00;10.89;73.64
67862;DHT22;54665;51.462;6.698;2023-01-08T14:07:27;10.89;73.88
67862;DHT22;54665;51.462;6.698;2023-01-08T14:09:52;10.91;73.45
67862;DHT22;54665;51.462;6.698;2023-01-08T14:12:20;10.82;73.53
67862;DHT22;54665;51.462;6.698;2023-01-08T14:14:56;10.69;73.51
67862;DHT22;54665;51.462;6.698;2023-01-08T14:17:29;10.69;74.98
67862;DHT22;54665;51.462;6.698;2023-01-08T14:19:55;10.84;73.73
67862;DHT22;54665;51.462;6.698;2023-01-08T14:22:28;10.89;72.25
67862;DHT22;54665;51.462;6.698;2023-01-08T14:24:57;10.74;72.66
67862;DHT22;54665;51.462;6.698;2023-01-08T14:27:26;10.60;72.16
67862;DHT22;54665;51.462;6.698;2023-01-08T14:29:53;10.50;71.73
67862;DHT22;54665;51.462;6.698;2023-01-08T14:32:22;10.46;71.56
67862;DHT22;54665;51.462;6.698;2023-01-08T14:34:49;10.40;72.74
67862;DHT22;54665;51.462;6.698;2023-01-08T14:37:16;10.27;72.65
67862;DHT22;54665;51.462;6.698;2023-01-08T14:39:42;10.19;72.90
67862;DHT22;54665;51.462;6.698;2023-01-08T14:45:29;9.99;73.20
67862;DHT22;54665;51.462;6.698;2023-01-08T14:48:06;9.89;74.04
67862;DHT22;54665;51.462;6.698;2023-01-08T14:50:35;9.75;74.56
67862;DHT22;54665;51.462;6.698;2023-01-08T14:55:31;9.68;75.15
67862;DHT22;54665;51.462;6.698;2023-01-08T14:57:58;9.52;75.58
67862;DHT22;54665;51.462;6.698;2023-01-08T15:00:28;9.48;75.44
67862;DHT22;54665;51.462;6.698;2023-01-08T15:02:55;9.44;75.59
67862;DHT22;54665;51.462;6.698;2023-01-08T15:05:29;9.45;75.13
67862;DHT22;54665;51.462;6.698;2023-01-08T15:08:02;9.46;74.90
67862;DHT22;54665;51.462;6.698;2023-01-08T15:10:40;9.48;74.99
67862;DHT22;54665;51.462;6.698;2023-01-08T15:13:23;9.41;75.32
67862;DHT22;54665;51.462;6.698;2023-01-08T15:16:15;9.28;75.67
67862;DHT22;54665;51.462;6.698;2023-01-08T15:18:43;9.14;76.67
67862;DHT22;54665;51.462;6.698;2023-01-08T15:21:15;9.15;76.44
67862;DHT22;54665;51.462;6.698;2023-01-08T15:23:41;8.96;77.27
67862;DHT22;54665;51.462;6.698;2023-01-08T15:26:12;8.74;78.15
67862;DHT22;54665;51.462;6.698;2023-01-08T15:29:13;8.59;78.71
67862;DHT22;54665;51.462;6.698;2023-01-08T15:34:07;8.55;78.71
67862;DHT22;54665;51.462;6.698;2023-01-08T15:36:32;8.53;79.05
67862;DHT22;54665;51.462;6.698;2023-01-08T15:38:58;8.39;79.68
67862;DHT22;54665;51.462;6.698;2023-01-08T15:41:23;8.35;79.95
67862;DHT22;54665;51.462;6.698;2023-01-08T15:44:09;8.26;80.36
67862;DHT22;54665;51.462;6.698;2023-01-08T15:46:37;8.38;79.90
67862;DHT22;54665;51.462;6.698;2023-01-08T15:49:02;8.25;80.31
67862;DHT22;54665;51.462;6.698;2023-01-08T15:51:30;8.42;79.58
67862;DHT22;54665;51.462;6.698;2023-01-08T15:53:56;8.28;80.18
67862;DHT22;54665;51.462;6.698;2023-01-08T15:56:22;8.21;80.36
67862;DHT22;54665;51.462;6.698;2023-01-08T15:58:47;8.12;80.65
67862;DHT22;54665;51.462;6.698;2023-01-08T16:01:13;7.98;81.12
67862;DHT22;54665;51.462;6.698;2023-01-08T16:03:38;8.05;80.73
67862;DHT22;54665;51.462;6.698;2023-01-08T16:06:08;8.14;80.64
67862;DHT22;54665;51.462;6.698;2023-01-08T16:08:33;8.15;80.30
67862;DHT22;54665;51.462;6.698;2023-01-08T16:10:59;8.29;80.07
67862;DHT22;54665;51.462;6.698;2023-01-08T16:13:24;8.45;79.23
67862;DHT22;54665;51.462;6.698;2023-01-08T16:15:49;8.63;78.47
67862;DHT22;54665;51.462;6.698;2023-01-08T16:18:15;8.90;77.64
67862;DHT22;54665;51.462;6.698;2023-01-08T16:20:40;9.03;77.19
67862;DHT22;54665;51.462;6.698;2023-01-08T16:23:06;9.14;76.41
67862;DHT22;54665;51.462;6.698;2023-01-08T16:25:31;9.15;76.65
67862;DHT22;54665;51.462;6.698;2023-01-08T16:27:58;9.13;76.60
67862;DHT22;54665;51.462;6.698;2023-01-08T16:30:23;9.18;76.15
67862;DHT22;54665;51.462;6.698;2023-01-08T16:32:52;9.24;76.15
67862;DHT22;54665;51.462;6.698;2023-01-08T16:35:19;9.30;75.66
67862;DHT22;54665;51.462;6.698;2023-01-08T16:37:45;9.30;75.48
67862;DHT22;54665;51.462;6.698;2023-01-08T16:40:12;9.32;75.65
67862;DHT22;54665;51.462;6.698;2023-01-08T16:42:37;9.24;75.76
67862;DHT22;54665;51.462;6.698;2023-01-08T16:45:04;9.13;76.09
67862;DHT22;54665;51.462;6.698;2023-01-08T16:47:29;9.05;76.11
67862;DHT22;54665;51.462;6.698;2023-01-08T16:49:55;8.94;76.11
67862;DHT22;54665;51.462;6.698;2023-01-08T16:52:20;8.80;76.61
67862;DHT22;54665;51.462;6.698;2023-01-08T16:54:46;8.69;76.97
67862;DHT22;54665;51.462;6.698;2023-01-08T16:57:12;8.69;77.05
67862;DHT22;54665;51.462;6.698;2023-01-08T16:59:37;8.45;77.87
67862;DHT22;54665;51.462;6.698;2023-01-08T17:02:03;8.31;78.48
67862;DHT22;54665;51.462;6.698;2023-01-08T17:04:29;8.22;78.77
67862;DHT22;54665;51.462;6.698;2023-01-08T17:06:55;8.21;78.68
67862;DHT22;54665;51.462;6.698;2023-01-08T17:09:20;8.28;78.55
67862;DHT22;54665;51.462;6.698;2023-01-08T17:11:45;8.29;78.31